World of Logs combat log analyzer allows gamers to save, share and analyze their raiding experiences conveniently and thoroughly in the Blizzard MMO World of Warcraft. If you're new here, make sure you check out the tour for a 1 minute introduction. If you have any questions, we're happy to answer them on the forums.

DPS HPS
Odyn
Helya
Guarm
Reports for Elegon - statistics
# Date Time Damage DPS Guild Realm
1 14 Sep 2014 01:56 845.31M 7276449.6 untitled spreadsheet EU-Eredar
2 02 Jul 2014 02:25 898.58M 6185614.0 Bubbles Logs US-Proudmoore
3 26 May 2013 03:20 938.39M 4686035.8 Vigil US-Mal'Ganis
4 30 Mar 2013 03:20 925.98M 4621594.3 Method EU-Twisting Nether
5 27 May 2013 03:36 936.60M 4319508.5 Intl Bank of Azeroth US-Mannoroth
6 18 Mar 2013 04:00 943.72M 3917122.6 Рассвет EU-Пиратская бухта
7 27 Feb 2013 04:09 1035.12M 4149107.2 KLR EU-Sylvanas
8 27 Feb 2013 04:19 1052.72M 4055478.3 Karfagen EU-Свежеватель Душ
9 13 Feb 2013 04:19 1048.38M 4032551.4 Oblivion EU-Anub'arak
10 07 Apr 2013 04:20 920.38M 3528461.7 Aurora EU-Stormrage
11 27 Feb 2013 04:27 1049.69M 3929524.7 Quantum Leap EU-Pozzo dell'Eternità
12 24 Feb 2013 04:29 1069.55M 3965102.0 Ladies First EU-Drak'thul
13 28 Apr 2013 04:30 952.50M 3520329.5 Vitriol US-Tichondrius
14 03 Jun 2013 04:39 976.40M 3493546.4 QQ1 EU-Silvermoon
15 17 Mar 2013 05:09 983.31M 3181798.7 Eternal Reign US-Lightbringer
16 30 Jan 2013 05:13 1088.77M 3468901.4 mahlogs US-Ner'zhul
17 09 Sep 2014 05:36 995.48M 2954334.3 Jaish US-Area 52
18 07 Jan 2013 05:42 1119.81M 3268810.5 Lymi Logs US-Turalyon
19 07 Jan 2013 05:42 1119.84M 3268773.0 Supermassive US-Turalyon
20 04 Dec 2012 05:48 1141.93M 3277672.7 Midwinter US-Sargeras
21 16 Jan 2013 05:49 1140.28M 3263758.1 Reckoning US-Mannoroth
22 04 May 2013 05:59 1009.83M 2809816.0 Setha's logs US-Zul'jin
23 26 Nov 2012 06:00 1152.92M 3197549.6 Might US-Zul'jin
24 12 Apr 2013 06:03 998.09M 2745755.0 Rampie EU-Frostwhisper
25 12 Apr 2013 06:03 997.89M 2745052.5 Ride of Afterlife EU-Draenor
26 02 Sep 2013 06:03 1037.59M 2852020.7 Mostly Harmless US-Undermine
27 12 May 2013 06:12 1022.99M 2743211.9 Drachenjagd EU-Die Aldor
28 21 Jan 2013 06:14 1115.98M 2983351.6 Make It Happen US-Stormreaver
29 24 Mar 2013 06:14 989.34M 2640457.5 Twilight Brigade US-Turalyon
30 04 Feb 2013 06:16 1089.38M 2896081.9 sick EU-Eredar
31 10 May 2013 06:16 1012.97M 2689132.0 Ride of Afterlife EU-Draenor
32 25 Feb 2013 06:17 1115.91M 2954632.8 КрашТест EU-Разувий
33 30 Dec 2012 06:19 1138.84M 2999431.0 Dedicated Few EU-Nemesis
34 29 Jan 2013 06:19 1078.24M 2838626.7 Халфмун EU-Гордунни
35 30 Jan 2013 06:20 1128.22M 2966222.5 Lux Aeterna US-Thaurissan
36 21 Mar 2013 06:21 1020.57M 2676364.7 Still Thirsty US-Area 52
37 21 Mar 2013 06:21 1020.53M 2676082.0 wulogs US-Stormrage
38 31 May 2013 06:21 1023.12M 2682308.6 Freedom EU-Kael'thas
39 11 Feb 2013 06:23 1123.16M 2927751.1 Phoenix EU-Silvermoon
40 20 Feb 2013 06:24 1110.49M 2885383.3 Casually Serious US-Sargeras
41 11 Feb 2013 06:25 1098.48M 2848852.3 the cov US-Zul'jin
42 27 Feb 2013 06:26 1131.52M 2928083.8 Ebrius EU-Stormreaver
43 21 Feb 2013 06:26 1128.25M 2916882.9 NPH FanClub US-Bleeding Hollow
44 28 Feb 2013 06:27 1130.54M 2916318.7 Peachy Keen US-Stormreaver
45 01 Mar 2013 06:27 1130.63M 2914706.2 LisacuddyLogtimes US-Stormreaver
46 05 Feb 2013 06:28 1119.44M 2878342.4 Brothers in Arms EU-Emeriss
47 05 Feb 2013 06:29 1117.60M 2872961.4 Brothers in Arms EU-Emeriss
48 19 Apr 2013 06:29 1003.79M 2580375.4 Pelles Pølser EU-Frostwhisper
49 19 Apr 2013 06:29 1003.72M 2579976.1 Ride of Afterlife EU-Draenor
50 24 May 2013 06:29 996.96M 2561295.9 Rampie EU-Frostwhisper
51 24 May 2013 06:29 996.51M 2559980.7 Moronic Impression EU-Frostwhisper
52 14 Jan 2013 06:29 1122.38M 2882329.4 Phoenix EU-Silvermoon
53 16 Dec 2012 06:29 1132.99M 2907884.8 Amused to Death EU-Defias Brotherhood
54 26 Nov 2012 06:30 1128.62M 2893661.6 The Late Shift US-Magtheridon
55 31 Jan 2013 06:30 1105.86M 2834009.8 Criticism US-Area 52
56 31 Jan 2013 06:30 1105.78M 2833771.3 Criticism US-Area 52
57 16 Feb 2013 06:31 1128.66M 2881328.6 Би Негатив EU-Разувий
58 05 Jan 2013 06:31 1134.18M 2894949.8 Evolution US-Spirestone
59 04 Mar 2013 06:31 1106.25M 2823463.3 Dragon & Jambon EU-Cho’gall
60 20 Jan 2013 06:33 1121.51M 2847892.8 CATASTROPHE EU-Twisting Nether
61 28 Feb 2013 06:34 1102.74M 2796602.9 Stoic US-Bonechewer
62 14 Jan 2013 06:34 1138.74M 2887859.8 Gwen Stefani US-Illidan
63 19 Nov 2012 06:34 1144.66M 2900030.5 Blue Label US-Barthilas
64 28 Feb 2013 06:35 1129.86M 2854417.3 Last Chance EU-Dethecus
65 04 Mar 2013 06:36 1109.73M 2800252.8 Why Tempt Fate US-Cho'gall
66 21 Jan 2013 06:36 1132.67M 2857684.3 Rage US-Stormrage
67 24 Feb 2013 06:36 1114.93M 2810381.9 Ranked EU-Antonidas
68 21 Jan 2013 06:37 1236.91M 3114485.7 Set Sail for Fail EU-Nathrezim
69 04 Feb 2013 06:38 1146.70M 2876531.2 Sunday's Guild US-Khaz'goroth
70 15 Jan 2013 06:38 1104.15M 2768740.5 The Haunted EU-Genjuros
71 04 Dec 2012 06:39 1127.17M 2822815.4 macdonald EU-Sargeras
72 16 Dec 2012 06:39 1133.84M 2836058.3 Pulse EU-Blackmoore
73 11 Feb 2013 06:39 1127.25M 2818884.6 Unhuman US-Arthas
74 11 Feb 2013 06:40 1127.21M 2817891.7 faez US-Skullcrusher
75 13 Jan 2013 06:40 1109.23M 2771908.5 Riot US-Sargeras
76 24 Jan 2013 06:41 1111.87M 2769011.8 Windshrike US-Lightbringer
77 22 Jan 2013 06:42 1122.59M 2788700.8 Hypnosis EU-Burning Legion
78 29 Nov 2012 06:42 1138.27M 2826819.2 Awakened US-Kil'jaeden
79 11 Feb 2013 06:42 1117.67M 2774760.8 No Guild EU-Teldrassil
80 15 Mar 2013 06:42 1004.24M 2492847.1 Stark Industries team 2 EU-Sylvanas
81 15 Mar 2013 06:43 1004.09M 2490654.4 Vanishes logs EU-Sylvanas
82 10 Feb 2013 06:43 1110.00M 2752602.4 Symbiose EU-La Croisade écarlate
83 25 Mar 2013 06:43 991.44M 2457977.5 ota benga EU-Thrall
84 07 Feb 2013 06:43 1102.33M 2731152.1 vile US-Mal'Ganis
85 11 Feb 2013 06:43 1116.67M 2765298.4 logs US-Drenden
86 11 Feb 2013 06:43 1116.23M 2764015.0 Stormwind Nocturnals US-Lightbringer
87 18 Feb 2013 06:43 1126.96M 2790293.1 Gehenna EU-Stormreaver
88 11 Feb 2013 06:44 1116.67M 2763861.1 Knights of Turalyon US-Lightbringer
89 06 Dec 2012 06:44 1147.26M 2838464.6 Bovine Intervention EU-Khadgar
90 12 Feb 2013 06:44 1171.17M 2894987.9 Fear The Rabbit EU-Defias Brotherhood
91 24 Jan 2013 06:45 1161.60M 2866905.9 Synesthesia US-Stormrage
92 04 Mar 2013 06:45 1106.67M 2729401.0 sick EU-Eredar
93 26 Feb 2013 06:45 1110.64M 2739124.3 Average Joes US-Bleeding Hollow
94 10 Dec 2012 06:45 1144.99M 2820685.2 A Necessary Evil EU-Hellfire
95 03 Mar 2013 06:46 1145.59M 2820616.5 Enjoy The Abuse US-Shandris
96 28 Jan 2013 06:46 1164.69M 2867600.2 Phoenix EU-Silvermoon
97 05 Apr 2013 06:46 1003.10M 2468095.6 Pelles Pølser EU-Frostwhisper
98 05 Apr 2013 06:46 1003.09M 2467993.5 Rampie EU-Frostwhisper
99 10 Jan 2013 06:47 1121.81M 2754758.8 Set Sail for Fail EU-Nathrezim
100 10 Jan 2013 06:47 1121.81M 2754623.5 Set Sail for Fail EU-Nathrezim

Please do not close the page with the ad you want to report.

I've posted a guide on how to report misbehaving ads on the forum. Please follow the instructions and help make the internet a safer place. Thanks for you time.